createdAt,value
2018-12-07T21:31:37.828Z,14.40
2018-12-07T21:34:18.941Z,13.47
2018-12-07T21:36:48.677Z,14.37
2018-12-07T21:39:53.708Z,14.00
2018-12-07T21:42:24.614Z,14.50
2018-12-07T21:44:53.430Z,14.77
2018-12-07T21:47:36.023Z,14.77
2018-12-07T21:50:14.730Z,15.03
2018-12-07T21:52:44.930Z,14.67
2018-12-07T21:55:14.295Z,14.33
2018-12-07T22:01:14.970Z,14.67
2018-12-07T22:03:44.162Z,15.10
2018-12-07T22:06:13.011Z,14.60
2018-12-07T22:08:45.765Z,14.77
2018-12-07T22:11:17.158Z,15.03
2018-12-07T22:13:49.041Z,14.20
2018-12-07T22:16:18.908Z,14.67
2018-12-07T22:19:03.382Z,15.10
2018-12-07T22:21:32.180Z,16.53
2018-12-07T22:24:01.287Z,15.37
2018-12-07T22:26:30.592Z,16.20
2018-12-07T22:28:59.943Z,17.43
2018-12-07T22:41:29.969Z,15.83
2018-12-07T22:43:58.384Z,16.13
2018-12-07T22:46:27.690Z,16.50
2018-12-07T22:48:57.397Z,16.63
2018-12-07T22:51:25.742Z,17.10
2018-12-07T22:53:54.332Z,15.80
2018-12-07T22:56:22.849Z,15.93
2018-12-07T22:58:51.335Z,15.53
2018-12-07T23:01:20.409Z,15.40
2018-12-07T23:03:49.286Z,15.13
2018-12-07T23:06:18.455Z,14.90
2018-12-07T23:08:46.960Z,15.87
2018-12-07T23:11:15.571Z,15.90
2018-12-07T23:13:44.198Z,15.40
2018-12-07T23:16:12.880Z,15.07
2018-12-07T23:18:41.604Z,14.77
2018-12-07T23:21:10.164Z,13.97
2018-12-07T23:23:39.220Z,15.00
2018-12-07T23:26:07.994Z,15.00
2018-12-07T23:28:36.452Z,14.27
2018-12-07T23:31:05.068Z,14.37
2018-12-07T23:33:34.265Z,14.43
2018-12-07T23:36:05.605Z,14.20
2018-12-07T23:38:34.858Z,13.17
2018-12-07T23:41:03.509Z,13.77
2018-12-07T23:43:31.998Z,14.17
2018-12-07T23:46:00.674Z,13.40
2018-12-07T23:49:03.194Z,12.97
2018-12-07T23:51:32.098Z,12.77
2018-12-07T23:54:00.607Z,12.97
2018-12-07T23:56:29.122Z,12.60
2018-12-07T23:58:57.692Z,12.33
